sensor_id;sensor_type;location;lat;lon;timestamp;P1;durP1;ratioP1;P2;durP2;ratioP2
35312;SDS011;21425;50.454;30.466;2023-11-21T00:01:02;19.15;;;7.30;;
35312;SDS011;21425;50.454;30.466;2023-11-21T00:03:30;20.50;;;8.30;;
35312;SDS011;21425;50.454;30.466;2023-11-21T00:05:56;20.23;;;8.55;;
35312;SDS011;21425;50.454;30.466;2023-11-21T00:08:21;21.02;;;9.13;;
35312;SDS011;21425;50.454;30.466;2023-11-21T00:10:47;29.08;;;8.45;;
35312;SDS011;21425;50.454;30.466;2023-11-21T00:13:13;36.53;;;8.95;;
35312;SDS011;21425;50.454;30.466;2023-11-21T00:15:39;18.77;;;8.23;;
35312;SDS011;21425;50.454;30.466;2023-11-21T00:18:05;23.58;;;8.98;;
35312;SDS011;21425;50.454;30.466;2023-11-21T00:20:31;16.67;;;7.65;;
35312;SDS011;21425;50.454;30.466;2023-11-21T00:22:57;23.65;;;9.07;;
35312;SDS011;21425;50.454;30.466;2023-11-21T00:25:24;22.02;;;8.55;;
35312;SDS011;21425;50.454;30.466;2023-11-21T00:27:50;20.85;;;8.63;;
35312;SDS011;21425;50.454;30.466;2023-11-21T00:30:16;21.88;;;8.88;;
35312;SDS011;21425;50.454;30.466;2023-11-21T00:32:42;19.30;;;8.50;;
35312;SDS011;21425;50.454;30.466;2023-11-21T00:35:08;22.10;;;9.15;;
35312;SDS011;21425;50.454;30.466;2023-11-21T00:37:34;22.95;;;10.07;;
35312;SDS011;21425;50.454;30.466;2023-11-21T00:40:01;24.60;;;9.60;;
35312;SDS011;21425;50.454;30.466;2023-11-21T00:42:32;23.42;;;9.63;;
35312;SDS011;21425;50.454;30.466;2023-11-21T00:44:59;24.52;;;9.20;;
35312;SDS011;21425;50.454;30.466;2023-11-21T00:47:25;24.52;;;9.40;;
35312;SDS011;21425;50.454;30.466;2023-11-21T00:49:50;26.25;;;9.10;;
35312;SDS011;21425;50.454;30.466;2023-11-21T00:52:16;24.38;;;8.85;;
35312;SDS011;21425;50.454;30.466;2023-11-21T00:54:42;21.17;;;9.18;;
35312;SDS011;21425;50.454;30.466;2023-11-21T00:57:08;26.10;;;9.88;;
35312;SDS011;21425;50.454;30.466;2023-11-21T00:59:34;25.17;;;10.50;;
35312;SDS011;21425;50.454;30.466;2023-11-21T01:02:00;21.63;;;9.63;;
35312;SDS011;21425;50.454;30.466;2023-11-21T01:04:27;22.80;;;10.57;;
35312;SDS011;21425;50.454;30.466;2023-11-21T01:06:53;26.65;;;9.73;;
35312;SDS011;21425;50.454;30.466;2023-11-21T01:09:19;27.92;;;9.75;;
35312;SDS011;21425;50.454;30.466;2023-11-21T01:11:45;23.95;;;9.75;;
35312;SDS011;21425;50.454;30.466;2023-11-21T01:14:11;28.45;;;10.93;;
35312;SDS011;21425;50.454;30.466;2023-11-21T01:16:38;23.40;;;9.75;;
35312;SDS011;21425;50.454;30.466;2023-11-21T01:19:04;17.20;;;8.52;;
35312;SDS011;21425;50.454;30.466;2023-11-21T01:21:30;24.77;;;10.82;;
35312;SDS011;21425;50.454;30.466;2023-11-21T01:23:56;28.60;;;10.73;;
35312;SDS011;21425;50.454;30.466;2023-11-21T01:26:22;26.83;;;10.15;;
35312;SDS011;21425;50.454;30.466;2023-11-21T01:28:48;26.73;;;10.07;;
35312;SDS011;21425;50.454;30.466;2023-11-21T01:31:17;23.75;;;9.50;;
35312;SDS011;21425;50.454;30.466;2023-11-21T01:33:43;29.83;;;10.40;;
35312;SDS011;21425;50.454;30.466;2023-11-21T01:36:09;20.58;;;9.20;;
35312;SDS011;21425;50.454;30.466;2023-11-21T01:38:36;24.70;;;9.65;;
35312;SDS011;21425;50.454;30.466;2023-11-21T01:41:02;27.35;;;10.55;;
35312;SDS011;21425;50.454;30.466;2023-11-21T01:43:28;19.45;;;8.45;;
35312;SDS011;21425;50.454;30.466;2023-11-21T01:45:56;20.58;;;9.15;;
35312;SDS011;21425;50.454;30.466;2023-11-21T01:48:23;21.70;;;8.38;;
35312;SDS011;21425;50.454;30.466;2023-11-21T01:50:49;22.05;;;8.48;;
35312;SDS011;21425;50.454;30.466;2023-11-21T01:53:16;24.42;;;8.93;;
35312;SDS011;21425;50.454;30.466;2023-11-21T01:55:43;30.13;;;8.80;;
35312;SDS011;21425;50.454;30.466;2023-11-21T01:58:10;17.35;;;7.47;;
35312;SDS011;21425;50.454;30.466;2023-11-21T02:00:37;16.50;;;8.07;;
35312;SDS011;21425;50.454;30.466;2023-11-21T02:03:03;20.67;;;8.60;;
35312;SDS011;21425;50.454;30.466;2023-11-21T02:05:29;18.98;;;8.20;;
35312;SDS011;21425;50.454;30.466;2023-11-21T02:07:55;20.95;;;9.00;;
35312;SDS011;21425;50.454;30.466;2023-11-21T02:10:21;19.58;;;7.80;;
35312;SDS011;21425;50.454;30.466;2023-11-21T02:12:50;20.13;;;8.43;;
35312;SDS011;21425;50.454;30.466;2023-11-21T02:15:18;25.33;;;8.95;;
35312;SDS011;21425;50.454;30.466;2023-11-21T02:17:48;32.42;;;10.43;;
35312;SDS011;21425;50.454;30.466;2023-11-21T02:20:16;27.10;;;10.07;;
35312;SDS011;21425;50.454;30.466;2023-11-21T02:22:43;20.80;;;9.60;;
35312;SDS011;21425;50.454;30.466;2023-11-21T02:25:21;22.92;;;10.05;;
35312;SDS011;21425;50.454;30.466;2023-11-21T02:27:47;26.70;;;11.50;;
35312;SDS011;21425;50.454;30.466;2023-11-21T02:30:14;26.63;;;9.23;;
35312;SDS011;21425;50.454;30.466;2023-11-21T02:32:41;23.70;;;9.75;;
35312;SDS011;21425;50.454;30.466;2023-11-21T02:35:08;26.08;;;9.38;;
35312;SDS011;21425;50.454;30.466;2023-11-21T02:37:34;27.90;;;9.52;;
35312;SDS011;21425;50.454;30.466;2023-11-21T02:40:00;23.52;;;9.80;;
35312;SDS011;21425;50.454;30.466;2023-11-21T02:42:29;23.83;;;9.70;;
35312;SDS011;21425;50.454;30.466;2023-11-21T02:44:55;20.67;;;9.15;;
35312;SDS011;21425;50.454;30.466;2023-11-21T02:47:22;26.70;;;10.48;;
35312;SDS011;21425;50.454;30.466;2023-11-21T02:49:48;25.33;;;10.02;;
35312;SDS011;21425;50.454;30.466;2023-11-21T02:52:14;19.95;;;9.07;;
35312;SDS011;21425;50.454;30.466;2023-11-21T02:54:41;21.77;;;9.48;;
35312;SDS011;21425;50.454;30.466;2023-11-21T02:57:08;20.00;;;9.40;;
35312;SDS011;21425;50.454;30.466;2023-11-21T02:59:33;22.38;;;8.57;;
35312;SDS011;21425;50.454;30.466;2023-11-21T03:02:00;23.60;;;9.77;;
35312;SDS011;21425;50.454;30.466;2023-11-21T03:04:26;19.90;;;9.07;;
35312;SDS011;21425;50.454;30.466;2023-11-21T03:06:52;20.92;;;9.48;;
35312;SDS011;21425;50.454;30.466;2023-11-21T03:09:17;25.30;;;10.18;;
35312;SDS011;21425;50.454;30.466;2023-11-21T03:11:43;20.80;;;8.88;;
35312;SDS011;21425;50.454;30.466;2023-11-21T03:14:09;26.67;;;9.77;;
35312;SDS011;21425;50.454;30.466;2023-11-21T03:16:35;23.65;;;8.50;;
35312;SDS011;21425;50.454;30.466;2023-11-21T03:19:03;23.92;;;9.10;;
35312;SDS011;21425;50.454;30.466;2023-11-21T03:21:30;23.42;;;9.82;;
35312;SDS011;21425;50.454;30.466;2023-11-21T03:23:56;26.38;;;10.98;;
35312;SDS011;21425;50.454;30.466;2023-11-21T03:26:22;25.55;;;10.43;;
35312;SDS011;21425;50.454;30.466;2023-11-21T03:28:48;27.45;;;10.30;;
35312;SDS011;21425;50.454;30.466;2023-11-21T03:31:14;32.75;;;13.57;;
35312;SDS011;21425;50.454;30.466;2023-11-21T03:33:42;25.58;;;10.13;;
35312;SDS011;21425;50.454;30.466;2023-11-21T03:36:08;27.92;;;11.85;;
35312;SDS011;21425;50.454;30.466;2023-11-21T03:38:34;27.95;;;10.90;;
35312;SDS011;21425;50.454;30.466;2023-11-21T03:41:01;30.70;;;12.43;;
35312;SDS011;21425;50.454;30.466;2023-11-21T03:43:27;29.20;;;11.55;;
35312;SDS011;21425;50.454;30.466;2023-11-21T03:45:53;29.38;;;11.52;;
35312;SDS011;21425;50.454;30.466;2023-11-21T03:48:19;26.45;;;12.50;;
35312;SDS011;21425;50.454;30.466;2023-11-21T03:50:45;35.97;;;15.07;;
35312;SDS011;21425;50.454;30.466;2023-11-21T03:53:12;28.17;;;11.85;;
35312;SDS011;21425;50.454;30.466;2023-11-21T03:55:38;34.10;;;13.52;;
35312;SDS011;21425;50.454;30.466;2023-11-21T03:58:04;30.08;;;12.00;;
35312;SDS011;21425;50.454;30.466;2023-11-21T04:00:31;28.42;;;11.65;;
35312;SDS011;21425;50.454;30.466;2023-11-21T04:02:56;25.67;;;11.65;;
35312;SDS011;21425;50.454;30.466;2023-11-21T04:05:23;26.70;;;11.10;;
35312;SDS011;21425;50.454;30.466;2023-11-21T04:07:50;27.23;;;11.38;;
35312;SDS011;21425;50.454;30.466;2023-11-21T04:10:18;30.55;;;12.60;;
35312;SDS011;21425;50.454;30.466;2023-11-21T04:12:44;30.05;;;12.82;;
35312;SDS011;21425;50.454;30.466;2023-11-21T04:15:11;28.58;;;13.43;;
35312;SDS011;21425;50.454;30.466;2023-11-21T04:17:38;23.50;;;11.52;;
35312;SDS011;21425;50.454;30.466;2023-11-21T04:20:04;37.70;;;14.18;;
35312;SDS011;21425;50.454;30.466;2023-11-21T04:22:40;28.45;;;12.00;;
35312;SDS011;21425;50.454;30.466;2023-11-21T04:25:09;41.45;;;16.33;;
35312;SDS011;21425;50.454;30.466;2023-11-21T04:27:39;50.70;;;18.13;;
35312;SDS011;21425;50.454;30.466;2023-11-21T04:30:05;42.00;;;13.32;;
35312;SDS011;21425;50.454;30.466;2023-11-21T04:32:32;43.85;;;15.20;;
35312;SDS011;21425;50.454;30.466;2023-11-21T04:34:58;35.13;;;15.73;;
35312;SDS011;21425;50.454;30.466;2023-11-21T04:37:24;52.00;;;21.38;;
35312;SDS011;21425;50.454;30.466;2023-11-21T04:39:50;35.60;;;14.93;;
35312;SDS011;21425;50.454;30.466;2023-11-21T04:42:16;37.53;;;12.98;;
35312;SDS011;21425;50.454;30.466;2023-11-21T04:44:42;29.27;;;11.65;;
35312;SDS011;21425;50.454;30.466;2023-11-21T04:47:09;33.55;;;12.80;;
35312;SDS011;21425;50.454;30.466;2023-11-21T04:49:35;29.48;;;12.90;;
35312;SDS011;21425;50.454;30.466;2023-11-21T04:52:01;34.35;;;12.50;;
35312;SDS011;21425;50.454;30.466;2023-11-21T04:54:28;35.15;;;12.65;;
35312;SDS011;21425;50.454;30.466;2023-11-21T04:56:55;35.25;;;13.23;;
35312;SDS011;21425;50.454;30.466;2023-11-21T04:59:21;38.80;;;13.82;;
35312;SDS011;21425;50.454;30.466;2023-11-21T05:01:50;31.63;;;12.40;;
35312;SDS011;21425;50.454;30.466;2023-11-21T05:04:16;35.97;;;13.80;;
35312;SDS011;21425;50.454;30.466;2023-11-21T05:06:41;40.25;;;15.93;;
35312;SDS011;21425;50.454;30.466;2023-11-21T05:09:07;39.50;;;16.40;;
35312;SDS011;21425;50.454;30.466;2023-11-21T05:11:36;40.88;;;15.38;;
35312;SDS011;21425;50.454;30.466;2023-11-21T05:14:03;43.35;;;16.55;;
35312;SDS011;21425;50.454;30.466;2023-11-21T05:16:30;45.97;;;17.67;;
35312;SDS011;21425;50.454;30.466;2023-11-21T05:18:56;40.75;;;17.33;;
35312;SDS011;21425;50.454;30.466;2023-11-21T05:21:25;44.22;;;17.10;;
35312;SDS011;21425;50.454;30.466;2023-11-21T05:23:51;52.85;;;19.90;;
35312;SDS011;21425;50.454;30.466;2023-11-21T05:26:17;51.47;;;19.73;;
35312;SDS011;21425;50.454;30.466;2023-11-21T05:28:43;52.05;;;20.55;;
35312;SDS011;21425;50.454;30.466;2023-11-21T05:31:09;57.63;;;21.67;;
35312;SDS011;21425;50.454;30.466;2023-11-21T05:33:35;64.88;;;24.60;;
35312;SDS011;21425;50.454;30.466;2023-11-21T05:36:02;63.65;;;23.27;;
35312;SDS011;21425;50.454;30.466;2023-11-21T05:38:28;51.28;;;20.60;;
35312;SDS011;21425;50.454;30.466;2023-11-21T05:40:54;64.47;;;22.42;;
35312;SDS011;21425;50.454;30.466;2023-11-21T05:43:20;65.85;;;23.98;;
35312;SDS011;21425;50.454;30.466;2023-11-21T05:45:46;62.70;;;22.75;;
35312;SDS011;21425;50.454;30.466;2023-11-21T05:48:11;61.90;;;22.98;;
35312;SDS011;21425;50.454;30.466;2023-11-21T05:50:37;53.35;;;21.48;;
35312;SDS011;21425;50.454;30.466;2023-11-21T05:53:03;57.25;;;21.00;;
35312;SDS011;21425;50.454;30.466;2023-11-21T05:55:29;60.90;;;21.73;;
35312;SDS011;21425;50.454;30.466;2023-11-21T05:57:56;63.17;;;22.20;;
35312;SDS011;21425;50.454;30.466;2023-11-21T06:00:22;57.58;;;22.45;;
35312;SDS011;21425;50.454;30.466;2023-11-21T06:02:50;65.03;;;22.25;;
35312;SDS011;21425;50.454;30.466;2023-11-21T06:05:20;50.35;;;21.73;;
35312;SDS011;21425;50.454;30.466;2023-11-21T06:07:51;55.65;;;20.60;;
35312;SDS011;21425;50.454;30.466;2023-11-21T06:10:19;49.55;;;20.90;;
35312;SDS011;21425;50.454;30.466;2023-11-21T06:12:49;55.20;;;20.65;;
35312;SDS011;21425;50.454;30.466;2023-11-21T06:15:15;51.22;;;18.23;;
35312;SDS011;21425;50.454;30.466;2023-11-21T06:17:44;52.45;;;19.75;;
35312;SDS011;21425;50.454;30.466;2023-11-21T06:20:14;44.33;;;17.75;;
35312;SDS011;21425;50.454;30.466;2023-11-21T06:22:43;39.50;;;16.48;;
35312;SDS011;21425;50.454;30.466;2023-11-21T06:25:09;43.13;;;16.80;;
35312;SDS011;21425;50.454;30.466;2023-11-21T06:27:38;43.05;;;16.67;;
35312;SDS011;21425;50.454;30.466;2023-11-21T06:30:05;34.05;;;16.67;;
35312;SDS011;21425;50.454;30.466;2023-11-21T06:32:34;47.58;;;16.45;;
35312;SDS011;21425;50.454;30.466;2023-11-21T06:35:03;36.28;;;15.27;;
35312;SDS011;21425;50.454;30.466;2023-11-21T06:37:30;42.42;;;16.17;;
35312;SDS011;21425;50.454;30.466;2023-11-21T06:39:57;37.28;;;16.27;;
35312;SDS011;21425;50.454;30.466;2023-11-21T06:42:23;37.45;;;14.88;;
35312;SDS011;21425;50.454;30.466;2023-11-21T06:44:50;38.08;;;16.20;;
35312;SDS011;21425;50.454;30.466;2023-11-21T06:47:19;44.22;;;17.42;;
35312;SDS011;21425;50.454;30.466;2023-11-21T06:49:50;42.65;;;15.45;;
35312;SDS011;21425;50.454;30.466;2023-11-21T06:52:17;44.47;;;16.05;;
35312;SDS011;21425;50.454;30.466;2023-11-21T06:54:43;37.38;;;16.55;;
35312;SDS011;21425;50.454;30.466;2023-11-21T06:57:10;44.60;;;17.40;;
35312;SDS011;21425;50.454;30.466;2023-11-21T06:59:36;45.63;;;15.80;;
35312;SDS011;21425;50.454;30.466;2023-11-21T07:02:02;41.92;;;16.08;;
35312;SDS011;21425;50.454;30.466;2023-11-21T07:04:28;44.78;;;16.33;;
35312;SDS011;21425;50.454;30.466;2023-11-21T07:06:54;45.38;;;18.70;;
35312;SDS011;21425;50.454;30.466;2023-11-21T07:09:20;50.72;;;19.02;;
35312;SDS011;21425;50.454;30.466;2023-11-21T07:11:50;42.35;;;15.65;;
35312;SDS011;21425;50.454;30.466;2023-11-21T07:14:17;34.83;;;16.17;;
35312;SDS011;21425;50.454;30.466;2023-11-21T07:16:44;39.05;;;17.83;;
35312;SDS011;21425;50.454;30.466;2023-11-21T07:19:11;40.10;;;17.13;;
35312;SDS011;21425;50.454;30.466;2023-11-21T07:21:37;38.10;;;17.20;;
35312;SDS011;21425;50.454;30.466;2023-11-21T07:24:07;38.58;;;16.40;;
35312;SDS011;21425;50.454;30.466;2023-11-21T07:26:34;40.95;;;16.58;;
35312;SDS011;21425;50.454;30.466;2023-11-21T07:29:00;40.83;;;17.10;;
35312;SDS011;21425;50.454;30.466;2023-11-21T07:31:27;43.30;;;17.75;;
35312;SDS011;21425;50.454;30.466;2023-11-21T07:33:54;43.10;;;17.48;;
35312;SDS011;21425;50.454;30.466;2023-11-21T07:36:22;36.08;;;15.65;;
35312;SDS011;21425;50.454;30.466;2023-11-21T07:38:48;38.72;;;16.20;;
35312;SDS011;21425;50.454;30.466;2023-11-21T07:41:15;33.50;;;15.10;;
35312;SDS011;21425;50.454;30.466;2023-11-21T07:43:41;42.78;;;17.45;;
35312;SDS011;21425;50.454;30.466;2023-11-21T07:46:07;41.40;;;16.52;;
35312;SDS011;21425;50.454;30.466;2023-11-21T07:48:34;40.28;;;15.75;;
35312;SDS011;21425;50.454;30.466;2023-11-21T07:51:06;37.42;;;15.05;;
35312;SDS011;21425;50.454;30.466;2023-11-21T07:53:33;41.33;;;14.80;;
35312;SDS011;21425;50.454;30.466;2023-11-21T07:56:03;32.80;;;14.80;;
35312;SDS011;21425;50.454;30.466;2023-11-21T07:58:29;39.38;;;14.85;;
35312;SDS011;21425;50.454;30.466;2023-11-21T08:00:56;28.42;;;13.88;;
35312;SDS011;21425;50.454;30.466;2023-11-21T08:03:22;34.13;;;16.15;;
35312;SDS011;21425;50.454;30.466;2023-11-21T08:05:47;40.60;;;17.40;;
35312;SDS011;21425;50.454;30.466;2023-11-21T08:08:13;33.88;;;14.73;;
35312;SDS011;21425;50.454;30.466;2023-11-21T08:10:40;40.53;;;13.68;;
35312;SDS011;21425;50.454;30.466;2023-11-21T08:13:07;25.63;;;11.20;;
35312;SDS011;21425;50.454;30.466;2023-11-21T08:15:34;27.83;;;11.25;;
35312;SDS011;21425;50.454;30.466;2023-11-21T08:18:01;22.85;;;10.10;;
35312;SDS011;21425;50.454;30.466;2023-11-21T08:20:27;21.58;;;9.45;;
35312;SDS011;21425;50.454;30.466;2023-11-21T08:22:54;22.83;;;9.77;;
35312;SDS011;21425;50.454;30.466;2023-11-21T08:25:23;20.88;;;9.52;;
35312;SDS011;21425;50.454;30.466;2023-11-21T08:27:49;19.80;;;9.30;;
35312;SDS011;21425;50.454;30.466;2023-11-21T08:30:15;18.27;;;8.82;;
35312;SDS011;21425;50.454;30.466;2023-11-21T08:32:42;20.23;;;9.63;;
35312;SDS011;21425;50.454;30.466;2023-11-21T08:35:08;21.85;;;9.45;;
35312;SDS011;21425;50.454;30.466;2023-11-21T08:37:35;18.88;;;8.23;;
35312;SDS011;21425;50.454;30.466;2023-11-21T08:40:04;20.38;;;9.60;;
35312;SDS011;21425;50.454;30.466;2023-11-21T08:42:37;32.17;;;12.43;;
35312;SDS011;21425;50.454;30.466;2023-11-21T08:45:04;22.70;;;10.80;;
35312;SDS011;21425;50.454;30.466;2023-11-21T08:47:31;25.80;;;11.23;;
35312;SDS011;21425;50.454;30.466;2023-11-21T08:49:56;24.98;;;10.02;;
35312;SDS011;21425;50.454;30.466;2023-11-21T08:52:23;26.23;;;10.68;;
35312;SDS011;21425;50.454;30.466;2023-11-21T08:54:49;30.70;;;11.55;;
35312;SDS011;21425;50.454;30.466;2023-11-21T08:57:23;27.35;;;11.02;;
35312;SDS011;21425;50.454;30.466;2023-11-21T08:59:49;28.17;;;12.88;;
35312;SDS011;21425;50.454;30.466;2023-11-21T09:02:20;30.88;;;13.32;;
35312;SDS011;21425;50.454;30.466;2023-11-21T09:04:48;40.47;;;15.40;;
35312;SDS011;21425;50.454;30.466;2023-11-21T09:07:14;39.30;;;15.15;;
35312;SDS011;21425;50.454;30.466;2023-11-21T09:09:40;31.70;;;14.25;;
35312;SDS011;21425;50.454;30.466;2023-11-21T09:12:06;35.75;;;14.65;;
35312;SDS011;21425;50.454;30.466;2023-11-21T09:14:32;29.75;;;13.95;;
35312;SDS011;21425;50.454;30.466;2023-11-21T09:16:57;36.00;;;14.35;;
35312;SDS011;21425;50.454;30.466;2023-11-21T09:19:23;31.65;;;13.98;;
35312;SDS011;21425;50.454;30.466;2023-11-21T09:21:50;38.78;;;16.13;;
35312;SDS011;21425;50.454;30.466;2023-11-21T09:24:15;33.97;;;14.30;;
35312;SDS011;21425;50.454;30.466;2023-11-21T09:26:41;38.55;;;14.32;;
35312;SDS011;21425;50.454;30.466;2023-11-21T09:29:07;36.08;;;16.00;;
35312;SDS011;21425;50.454;30.466;2023-11-21T09:31:33;37.35;;;15.25;;
35312;SDS011;21425;50.454;30.466;2023-11-21T09:34:00;34.75;;;15.80;;
35312;SDS011;21425;50.454;30.466;2023-11-21T09:36:27;32.15;;;13.93;;
35312;SDS011;21425;50.454;30.466;2023-11-21T09:38:55;33.25;;;13.13;;
35312;SDS011;21425;50.454;30.466;2023-11-21T09:41:23;27.38;;;12.48;;
35312;SDS011;21425;50.454;30.466;2023-11-21T09:43:52;27.20;;;12.23;;
35312;SDS011;21425;50.454;30.466;2023-11-21T09:46:21;38.20;;;13.85;;
35312;SDS011;21425;50.454;30.466;2023-11-21T09:48:50;34.72;;;14.20;;
35312;SDS011;21425;50.454;30.466;2023-11-21T09:51:21;31.33;;;13.68;;
35312;SDS011;21425;50.454;30.466;2023-11-21T09:53:52;32.03;;;13.88;;
35312;SDS011;21425;50.454;30.466;2023-11-21T09:56:18;28.63;;;13.32;;
35312;SDS011;21425;50.454;30.466;2023-11-21T09:58:50;26.35;;;12.43;;
35312;SDS011;21425;50.454;30.466;2023-11-21T10:01:18;31.40;;;13.45;;
35312;SDS011;21425;50.454;30.466;2023-11-21T10:03:44;34.88;;;14.73;;
35312;SDS011;21425;50.454;30.466;2023-11-21T10:06:12;42.67;;;16.48;;
35312;SDS011;21425;50.454;30.466;2023-11-21T10:08:39;35.10;;;15.40;;
35312;SDS011;21425;50.454;30.466;2023-11-21T10:11:05;40.20;;;17.65;;
35312;SDS011;21425;50.454;30.466;2023-11-21T10:13:36;38.65;;;15.85;;
35312;SDS011;21425;50.454;30.466;2023-11-21T10:16:03;38.55;;;15.85;;
35312;SDS011;21425;50.454;30.466;2023-11-21T10:18:32;37.83;;;14.25;;
35312;SDS011;21425;50.454;30.466;2023-11-21T10:20:59;31.02;;;13.18;;
35312;SDS011;21425;50.454;30.466;2023-11-21T10:23:26;28.15;;;12.63;;
35312;SDS011;21425;50.454;30.466;2023-11-21T10:25:53;40.30;;;15.15;;
35312;SDS011;21425;50.454;30.466;2023-11-21T10:28:20;39.50;;;15.68;;
35312;SDS011;21425;50.454;30.466;2023-11-21T10:30:46;37.45;;;15.35;;
35312;SDS011;21425;50.454;30.466;2023-11-21T10:33:12;35.97;;;14.70;;
35312;SDS011;21425;50.454;30.466;2023-11-21T10:35:39;31.42;;;13.45;;
35312;SDS011;21425;50.454;30.466;2023-11-21T10:38:05;28.17;;;12.23;;
35312;SDS011;21425;50.454;30.466;2023-11-21T10:40:33;27.45;;;11.98;;
35312;SDS011;21425;50.454;30.466;2023-11-21T10:43:08;32.95;;;14.88;;
35312;SDS011;21425;50.454;30.466;2023-11-21T10:45:36;33.55;;;13.65;;
35312;SDS011;21425;50.454;30.466;2023-11-21T10:48:05;38.35;;;15.02;;
35312;SDS011;21425;50.454;30.466;2023-11-21T10:50:35;29.90;;;13.55;;
35312;SDS011;21425;50.454;30.466;2023-11-21T10:53:05;31.15;;;14.00;;
35312;SDS011;21425;50.454;30.466;2023-11-21T10:55:31;36.42;;;14.13;;
35312;SDS011;21425;50.454;30.466;2023-11-21T10:57:58;27.05;;;12.95;;
35312;SDS011;21425;50.454;30.466;2023-11-21T11:00:27;35.97;;;13.60;;
35312;SDS011;21425;50.454;30.466;2023-11-21T11:02:53;42.20;;;13.02;;
35312;SDS011;21425;50.454;30.466;2023-11-21T11:05:21;38.97;;;14.80;;
35312;SDS011;21425;50.454;30.466;2023-11-21T11:07:50;38.03;;;16.58;;
35312;SDS011;21425;50.454;30.466;2023-11-21T11:10:20;41.00;;;16.10;;
35312;SDS011;21425;50.454;30.466;2023-11-21T11:12:48;43.33;;;16.88;;
35312;SDS011;21425;50.454;30.466;2023-11-21T11:15:15;33.33;;;15.27;;
35312;SDS011;21425;50.454;30.466;2023-11-21T11:17:42;33.55;;;13.02;;
35312;SDS011;21425;50.454;30.466;2023-11-21T11:20:10;35.83;;;15.85;;
35312;SDS011;21425;50.454;30.466;2023-11-21T11:27:54;38.65;;;18.27;;
35312;SDS011;21425;50.454;30.466;2023-11-21T11:36:20;32.60;;;15.85;;
35312;SDS011;21425;50.454;30.466;2023-11-21T11:38:31;38.25;;;14.68;;
35312;SDS011;21425;50.454;30.466;2023-11-21T11:41:00;35.13;;;15.80;;
35312;SDS011;21425;50.454;30.466;2023-11-21T11:43:28;35.72;;;14.40;;
35312;SDS011;21425;50.454;30.466;2023-11-21T11:45:56;37.22;;;17.38;;
35312;SDS011;21425;50.454;30.466;2023-11-21T11:48:24;33.92;;;14.57;;
35312;SDS011;21425;50.454;30.466;2023-11-21T11:51:06;31.13;;;14.77;;
35312;SDS011;21425;50.454;30.466;2023-11-21T11:53:48;34.42;;;14.90;;
35312;SDS011;21425;50.454;30.466;2023-11-21T11:56:29;28.75;;;13.75;;
35312;SDS011;21425;50.454;30.466;2023-11-21T11:58:57;32.47;;;14.82;;
35312;SDS011;21425;50.454;30.466;2023-11-21T12:01:24;36.00;;;13.95;;
35312;SDS011;21425;50.454;30.466;2023-11-21T12:06:45;33.85;;;14.25;;
35312;SDS011;21425;50.454;30.466;2023-11-21T12:09:18;38.92;;;14.50;;
35312;SDS011;21425;50.454;30.466;2023-11-21T12:11:44;34.92;;;14.57;;
35312;SDS011;21425;50.454;30.466;2023-11-21T12:14:11;31.60;;;14.15;;
35312;SDS011;21425;50.454;30.466;2023-11-21T12:16:39;34.95;;;14.68;;
35312;SDS011;21425;50.454;30.466;2023-11-21T12:19:07;30.17;;;13.48;;
35312;SDS011;21425;50.454;30.466;2023-11-21T12:21:34;28.55;;;14.55;;
35312;SDS011;21425;50.454;30.466;2023-11-21T12:24:01;37.45;;;13.98;;
35312;SDS011;21425;50.454;30.466;2023-11-21T12:26:28;38.80;;;16.58;;
35312;SDS011;21425;50.454;30.466;2023-11-21T12:28:54;36.33;;;15.98;;
35312;SDS011;21425;50.454;30.466;2023-11-21T12:31:23;37.28;;;16.27;;
35312;SDS011;21425;50.454;30.466;2023-11-21T12:33:49;38.58;;;15.75;;
35312;SDS011;21425;50.454;30.466;2023-11-21T12:36:15;34.45;;;15.52;;
35312;SDS011;21425;50.454;30.466;2023-11-21T12:38:41;38.67;;;14.82;;
35312;SDS011;21425;50.454;30.466;2023-11-21T12:41:08;39.85;;;14.40;;
35312;SDS011;21425;50.454;30.466;2023-11-21T12:43:34;31.38;;;14.48;;
35312;SDS011;21425;50.454;30.466;2023-11-21T12:46:04;27.38;;;13.77;;
35312;SDS011;21425;50.454;30.466;2023-11-21T12:48:39;40.22;;;16.50;;
35312;SDS011;21425;50.454;30.466;2023-11-21T12:51:07;33.60;;;14.55;;
35312;SDS011;21425;50.454;30.466;2023-11-21T12:53:34;38.72;;;16.85;;
35312;SDS011;21425;50.454;30.466;2023-11-21T12:56:09;31.20;;;14.00;;
35312;SDS011;21425;50.454;30.466;2023-11-21T12:58:36;39.30;;;14.90;;
35312;SDS011;21425;50.454;30.466;2023-11-21T13:01:04;33.58;;;15.05;;
35312;SDS011;21425;50.454;30.466;2023-11-21T13:03:31;39.22;;;16.58;;
35312;SDS011;21425;50.454;30.466;2023-11-21T13:05:57;34.88;;;14.82;;
35312;SDS011;21425;50.454;30.466;2023-11-21T13:08:24;38.33;;;16.48;;
35312;SDS011;21425;50.454;30.466;2023-11-21T13:10:54;35.90;;;14.88;;
35312;SDS011;21425;50.454;30.466;2023-11-21T13:13:21;39.30;;;15.45;;
35312;SDS011;21425;50.454;30.466;2023-11-21T13:18:21;45.15;;;15.07;;
35312;SDS011;21425;50.454;30.466;2023-11-21T13:20:48;37.67;;;16.00;;
35312;SDS011;21425;50.454;30.466;2023-11-21T13:23:14;32.45;;;14.95;;
35312;SDS011;21425;50.454;30.466;2023-11-21T13:25:42;35.75;;;15.63;;
35312;SDS011;21425;50.454;30.466;2023-11-21T13:28:17;41.25;;;16.95;;
35312;SDS011;21425;50.454;30.466;2023-11-21T13:30:46;37.33;;;16.63;;
35312;SDS011;21425;50.454;30.466;2023-11-21T13:33:12;38.22;;;14.45;;
35312;SDS011;21425;50.454;30.466;2023-11-21T13:35:43;30.48;;;13.07;;
35312;SDS011;21425;50.454;30.466;2023-11-21T13:38:16;36.15;;;12.98;;
35312;SDS011;21425;50.454;30.466;2023-11-21T13:41:01;30.88;;;12.82;;
35312;SDS011;21425;50.454;30.466;2023-11-21T13:43:28;33.53;;;13.88;;
35312;SDS011;21425;50.454;30.466;2023-11-21T13:45:54;40.60;;;14.45;;
35312;SDS011;21425;50.454;30.466;2023-11-21T13:48:31;33.45;;;13.40;;
35312;SDS011;21425;50.454;30.466;2023-11-21T13:51:21;32.17;;;13.10;;
35312;SDS011;21425;50.454;30.466;2023-11-21T13:53:55;26.77;;;12.38;;
35312;SDS011;21425;50.454;30.466;2023-11-21T13:56:22;27.95;;;11.85;;
35312;SDS011;21425;50.454;30.466;2023-11-21T13:58:49;30.85;;;12.75;;
35312;SDS011;21425;50.454;30.466;2023-11-21T14:01:19;26.73;;;12.20;;
35312;SDS011;21425;50.454;30.466;2023-11-21T14:03:54;35.17;;;15.02;;
35312;SDS011;21425;50.454;30.466;2023-11-21T14:06:27;32.33;;;12.93;;
35312;SDS011;21425;50.454;30.466;2023-11-21T14:08:59;38.13;;;14.32;;
35312;SDS011;21425;50.454;30.466;2023-11-21T14:11:30;35.92;;;12.90;;
35312;SDS011;21425;50.454;30.466;2023-11-21T14:13:55;30.75;;;14.32;;
35312;SDS011;21425;50.454;30.466;2023-11-21T14:16:25;35.60;;;13.35;;
35312;SDS011;21425;50.454;30.466;2023-11-21T14:18:51;33.63;;;13.85;;
35312;SDS011;21425;50.454;30.466;2023-11-21T14:21:43;35.40;;;13.80;;
35312;SDS011;21425;50.454;30.466;2023-11-21T14:24:11;37.03;;;13.88;;
35312;SDS011;21425;50.454;30.466;2023-11-21T14:26:43;37.00;;;15.23;;
35312;SDS011;21425;50.454;30.466;2023-11-21T14:29:11;32.22;;;13.75;;